Time;durP1;ratioP1;P1;durP2;ratioP2;P2;SDS_P1;SDS_P2;PMS_P1;PMS_P2;Temp;Humidity;BMP_temperature;BMP_pressure;BME280_temperature;BME280_humidity;BME280_pressure;Samples;Min_cycle;Max_cycle;Signal;HPM_P1;HPM_P2
2022/08/30 00:01:33;;;;;;;6.30;4.60;;;24.90;62.90;;;25.21;42.54;98850.16;5022510;27;121723;-83
2022/08/30 00:04:01;;;;;;;11.33;4.37;;;24.90;63.10;;;25.18;42.73;98834.00;5026313;27;114194;-82
2022/08/30 00:06:29;;;;;;;4.97;3.80;;;24.80;63.10;;;25.14;42.66;98839.63;5024896;28;114043;-82
2022/08/30 00:08:56;;;;;;;6.47;3.97;;;24.80;63.30;;;25.10;42.81;98838.84;5029655;28;123480;-81
2022/08/30 00:11:25;;;;;;;5.37;3.97;;;24.70;63.20;;;25.07;42.80;98834.03;5024031;27;121990;-83
2022/08/30 00:13:54;;;;;;;7.23;4.00;;;24.70;63.50;;;25.05;42.91;98844.94;5024187;28;115257;-82
2022/08/30 00:16:22;;;;;;;5.23;4.10;;;24.70;63.80;;;25.03;43.08;98836.84;5027286;28;114735;-83
2022/08/30 00:18:50;;;;;;;5.97;4.30;;;24.70;64.00;;;25.00;43.34;98846.16;5019778;27;124136;-79
2022/08/30 00:21:16;;;;;;;5.90;4.03;;;24.70;64.20;;;24.99;43.44;98846.56;5019998;28;123904;-80
2022/08/30 00:23:44;;;;;;;7.33;4.63;;;24.60;64.30;;;24.96;43.25;98845.38;5021631;27;114747;-79
2022/08/30 00:26:10;;;;;;;6.10;4.43;;;24.60;64.50;;;24.92;43.41;98845.38;5015286;28;113305;-78
2022/08/30 00:28:37;;;;;;;5.73;4.20;;;24.60;64.70;;;24.91;43.68;98848.63;5026855;28;124224;-80
2022/08/30 00:31:07;;;;;;;5.83;4.10;;;24.60;64.90;;;24.89;43.77;98853.84;5021385;28;123768;-79
2022/08/30 00:33:34;;;;;;;6.90;3.90;;;24.50;65.00;;;24.85;43.88;98850.22;5025403;28;115441;-79
2022/08/30 00:36:00;;;;;;;4.33;3.70;;;24.50;65.10;;;24.84;43.88;98851.44;5036164;27;114049;-81
2022/08/30 00:38:27;;;;;;;7.47;4.23;;;24.50;65.30;;;24.82;44.04;98851.03;5028695;28;123567;-77
2022/08/30 00:40:54;;;;;;;6.30;4.00;;;24.50;65.50;;;24.80;44.13;98853.50;5020285;28;123948;-77
2022/08/30 00:43:28;;;;;;;5.43;3.80;;;24.40;65.50;;;24.77;44.05;98845.81;5016827;28;114065;-79
2022/08/30 00:45:55;;;;;;;5.70;4.00;;;24.40;65.70;;;24.75;43.80;98842.59;5026691;28;114095;-78
2022/08/30 00:48:23;;;;;;;5.20;3.53;;;24.40;65.70;;;24.72;43.94;98851.88;5022624;28;124110;-78
2022/08/30 00:50:57;;;;;;;5.60;4.17;;;24.40;65.80;;;24.69;43.92;98848.66;5022965;28;122954;-79
2022/08/30 00:53:30;;;;;;;6.57;3.70;;;24.30;65.80;;;24.65;43.75;98856.31;5013580;27;114364;-81
2022/08/30 00:55:59;;;;;;;5.73;3.93;;;24.30;65.90;;;24.61;44.01;98852.72;5018460;28;113943;-78
2022/08/30 00:58:35;;;;;;;4.53;3.70;;;24.30;66.10;;;24.57;44.04;98851.09;5016579;28;124450;-79
2022/08/30 01:01:03;;;;;;;6.70;4.17;;;24.20;66.10;;;24.53;44.18;98845.47;5023180;27;123963;-78
2022/08/30 01:03:31;;;;;;;7.63;4.10;;;24.20;66.30;;;24.52;44.38;98852.31;5013978;27;115186;-78
2022/08/30 01:05:59;;;;;;;5.30;4.00;;;24.20;66.60;;;24.49;44.52;98850.28;5026932;28;115371;-79
2022/08/30 01:08:26;;;;;;;3.93;3.40;;;24.10;66.60;;;24.46;44.42;98845.47;5022404;28;124226;-79
2022/08/30 01:10:56;;;;;;;4.80;4.30;;;24.10;66.80;;;24.41;44.60;98848.66;5021538;28;123983;-78
2022/08/30 01:13:26;;;;;;;8.17;4.27;;;24.10;67.00;;;24.36;44.78;98847.03;5026400;28;114294;-78
2022/08/30 01:15:54;;;;;;;7.90;4.30;;;24.00;67.10;;;24.33;44.60;98847.06;5035037;27;113746;-79
2022/08/30 01:18:22;;;;;;;9.83;4.23;;;24.00;67.40;;;24.29;44.85;98852.72;5014708;28;123901;-80
2022/08/30 01:21:48;;;;;;;11.13;4.57;;;24.00;67.60;;;24.20;45.18;98852.28;5022298;28;123600;-78
2022/08/30 01:24:16;;;;;;;7.70;4.47;;;23.90;67.90;;;24.18;44.98;98852.72;4991318;28;113578;-79
2022/08/30 01:26:42;;;;;;;5.33;4.20;;;23.90;68.10;;;24.18;45.13;98852.72;5024651;28;114436;-80
2022/08/30 01:29:14;;;;;;;5.60;4.10;;;23.80;68.40;;;24.15;45.43;98845.06;5028180;27;124700;-82
2022/08/30 01:31:41;;;;;;;4.63;4.10;;;23.80;68.60;;;24.15;45.36;98853.50;5022387;28;123031;-78
2022/08/30 01:34:08;;;;;;;6.97;4.90;;;23.80;68.80;;;24.14;45.48;98848.25;5025381;27;114380;-78
2022/08/30 01:36:37;;;;;;;7.67;4.40;;;23.70;68.90;;;24.12;45.49;98854.28;5018138;27;114042;-78
2022/08/30 01:39:05;;;;;;;6.13;4.13;;;23.70;69.00;;;24.12;45.45;98854.28;5040125;27;124079;-77
2022/08/30 01:41:35;;;;;;;6.77;4.57;;;23.70;69.20;;;24.10;45.55;98845.44;5029588;27;124057;-78
2022/08/30 01:44:09;;;;;;;5.27;3.97;;;23.70;69.30;;;24.09;45.55;98855.09;5012303;28;114143;-76
2022/08/30 01:46:45;;;;;;;4.90;3.80;;;23.70;69.50;;;24.06;45.55;98850.28;5014509;27;113547;-77
2022/08/30 01:49:15;;;;;;;4.97;3.97;;;23.70;69.60;;;24.03;45.50;98851.06;5021245;28;124041;-78
2022/08/30 01:51:43;;;;;;;4.40;3.83;;;23.60;69.60;;;24.00;45.64;98851.88;5013531;28;124075;-77
2022/08/30 01:54:10;;;;;;;7.80;4.43;;;23.60;69.70;;;23.96;45.95;98857.50;5020803;28;116104;-82
2022/08/30 01:56:36;;;;;;;8.37;4.20;;;23.60;69.90;;;23.95;46.17;98869.22;5013398;28;115239;-78
2022/08/30 01:59:03;;;;;;;5.50;4.07;;;23.60;70.20;;;23.94;46.00;98868.41;5019048;28;124094;-77
2022/08/30 02:01:35;;;;;;;6.27;4.60;;;23.50;71.10;;;23.91;46.06;98860.75;5019305;27;122818;-77
2022/08/30 02:04:03;;;;;;;6.70;4.33;;;23.50;70.60;;;23.91;45.94;98872.03;5026290;28;114700;-78
2022/08/30 02:06:30;;;;;;;6.97;4.70;;;23.50;70.80;;;23.90;46.11;98869.59;5019457;28;114185;-76
2022/08/30 02:08:57;;;;;;;7.13;4.20;;;23.50;70.90;;;23.88;46.14;98861.53;5018328;28;124174;-78
2022/08/30 02:11:24;;;;;;;6.70;4.50;;;23.50;71.10;;;23.87;45.96;98862.75;5017185;28;123474;-78
2022/08/30 02:13:50;;;;;;;5.20;4.17;;;23.50;71.30;;;23.87;46.18;98870.41;5020993;27;114638;-80
2022/08/30 02:16:23;;;;;;;7.00;4.00;;;23.50;71.40;;;23.84;46.50;98860.72;5017877;28;113451;-78
2022/08/30 02:18:52;;;;;;;5.33;4.33;;;23.50;71.60;;;23.84;46.27;98855.09;5029284;28;124545;-76
2022/08/30 02:21:19;;;;;;;5.30;3.70;;;23.40;71.60;;;23.81;46.33;98844.59;5029096;28;123881;-76
2022/08/30 02:23:46;;;;;;;5.77;4.00;;;23.40;71.70;;;23.81;46.31;98855.88;5037848;27;113399;-76
2022/08/30 02:26:14;;;;;;;4.70;4.07;;;23.40;71.80;;;23.78;46.74;98848.22;5019947;28;113730;-78
2022/08/30 02:28:41;;;;;;;7.40;4.40;;;23.40;72.00;;;23.78;46.37;98851.84;5025520;28;123841;-76
2022/08/30 02:31:08;;;;;;;8.47;4.43;;;23.40;72.10;;;23.76;46.51;98854.25;5023867;28;123793;-76
2022/08/30 02:33:34;;;;;;;6.13;4.50;;;23.40;72.20;;;23.73;46.49;98852.25;5013165;28;114536;-77
2022/08/30 02:36:02;;;;;;;9.13;3.63;;;23.30;72.20;;;23.71;46.36;98849.00;5025715;28;113923;-77
2022/08/30 02:38:28;;;;;;;7.00;4.50;;;23.30;72.20;;;23.67;46.50;98842.53;5022810;28;124088;-77
2022/08/30 02:40:55;;;;;;;7.67;4.33;;;23.30;72.30;;;23.64;46.68;98837.66;5026848;28;123753;-77
2022/08/30 02:43:22;;;;;;;5.47;4.53;;;23.30;72.30;;;23.62;46.62;98839.31;5019519;28;115181;-77
2022/08/30 02:45:48;;;;;;;7.43;4.50;;;23.20;72.40;;;23.61;46.59;98835.66;5025697;28;114867;-77
2022/08/30 02:48:15;;;;;;;6.33;4.20;;;23.20;72.60;;;23.58;46.75;98834.44;5027410;28;123972;-77
2022/08/30 02:50:47;;;;;;;5.13;4.03;;;23.20;72.70;;;23.56;46.71;98833.22;5029230;28;124130;-76
2022/08/30 02:53:15;;;;;;;5.00;4.20;;;23.20;72.90;;;23.53;46.58;98842.47;5011238;28;114367;-77
2022/08/30 02:55:41;;;;;;;5.70;4.60;;;23.20;73.00;;;23.51;46.82;98842.09;5011789;28;113989;-80
2022/08/30 02:58:09;;;;;;;5.87;3.70;;;23.10;72.90;;;23.47;46.87;98844.09;5039515;28;123242;-79
2022/08/30 03:00:38;;;;;;;5.63;4.20;;;23.10;72.90;;;23.42;46.84;98847.28;5040347;27;121560;-78
2022/08/30 03:03:06;;;;;;;6.63;4.23;;;23.10;73.20;;;23.38;46.82;98834.00;5038928;27;114209;-78
2022/08/30 03:05:33;;;;;;;6.10;4.50;;;23.00;73.30;;;23.38;47.07;98831.16;5021941;27;113463;-76
2022/08/30 03:08:01;;;;;;;17.83;3.97;;;23.00;73.60;;;23.38;47.19;98830.38;5012195;28;124380;-77
2022/08/30 03:10:28;;;;;;;5.20;3.73;;;23.00;73.80;;;23.38;47.36;98828.34;5009054;28;123950;-77
2022/08/30 03:12:55;;;;;;;5.50;3.87;;;23.00;74.80;;;23.40;47.18;98825.16;5012067;28;114048;-77
2022/08/30 03:15:24;;;;;;;9.83;4.87;;;22.90;74.10;;;23.39;47.09;98826.31;5014721;28;114644;-80
2022/08/30 03:17:54;;;;;;;6.33;4.50;;;23.00;74.30;;;23.38;47.15;98825.53;5012940;27;124069;-77
2022/08/30 03:20:42;;;;;;;4.70;3.57;;;22.90;74.30;;;23.39;47.30;98826.31;5015111;28;123515;-77
2022/08/30 03:23:08;;;;;;;6.40;4.63;;;22.90;74.30;;;23.39;47.16;98823.50;4997566;28;114822;-78
2022/08/30 03:25:38;;;;;;;5.37;4.33;;;22.90;74.50;;;23.39;47.23;98820.69;5009673;28;114076;-77
2022/08/30 03:28:05;;;;;;;5.80;3.83;;;22.90;74.60;;;23.39;47.00;98812.22;4996350;28;124146;-79
2022/08/30 03:30:33;;;;;;;8.20;4.20;;;22.90;74.60;;;23.35;47.14;98817.88;5006822;28;124198;-77
2022/08/30 03:33:01;;;;;;;5.27;4.10;;;22.90;74.60;;;23.32;47.23;98812.19;4997664;28;114306;-76
2022/08/30 03:35:30;;;;;;;4.77;3.93;;;22.90;74.70;;;23.29;47.40;98822.28;5006967;28;114943;-76
2022/08/30 03:37:58;;;;;;;5.60;4.40;;;22.90;74.70;;;23.26;47.46;98830.72;5004434;28;123930;-77
2022/08/30 03:40:25;;;;;;;6.33;4.23;;;22.80;74.80;;;23.22;47.44;98818.63;5004065;28;123875;-77
2022/08/30 03:42:51;;;;;;;5.07;4.20;;;22.80;74.90;;;23.20;47.55;98818.22;4990567;28;114484;-76
2022/08/30 03:45:18;;;;;;;6.40;4.43;;;22.80;75.00;;;23.19;47.71;98816.63;4988937;28;114033;-77
2022/08/30 03:47:45;;;;;;;4.90;4.07;;;22.80;75.10;;;23.18;47.61;98818.59;5007291;28;124262;-78
2022/08/30 03:50:14;;;;;;;5.80;4.00;;;22.80;75.30;;;23.17;47.44;98822.63;4992485;28;124207;-78
2022/08/30 03:52:41;;;;;;;6.13;4.00;;;22.70;75.30;;;23.16;47.43;98821.03;5006135;28;114480;-77
2022/08/30 03:55:08;;;;;;;6.20;4.30;;;22.70;75.30;;;23.15;47.31;98819.41;5002110;28;113928;-81
2022/08/30 03:57:34;;;;;;;8.23;4.57;;;22.70;75.30;;;23.14;47.68;98823.44;4995929;28;123271;-78
2022/08/30 04:00:03;;;;;;;4.57;4.10;;;22.70;75.50;;;23.14;47.38;98826.25;5006140;28;123808;-78
2022/08/30 04:02:30;;;;;;;5.23;4.10;;;22.70;75.60;;;23.15;47.43;98825.03;5023312;27;114284;-79
2022/08/30 04:04:56;;;;;;;6.13;4.47;;;22.70;75.70;;;23.13;47.61;98822.63;5021259;28;114052;-79
2022/08/30 04:07:23;;;;;;;6.63;4.57;;;22.70;75.80;;;23.13;47.42;98818.97;5023837;28;124404;-77
2022/08/30 04:09:49;;;;;;;7.60;4.20;;;22.50;75.70;;;23.14;47.53;98823.44;5025183;28;123792;-77
2022/08/30 04:12:16;;;;;;;6.83;4.40;;;22.60;75.90;;;23.11;48.04;98822.22;5024019;28;114207;-79
2022/08/30 04:14:42;;;;;;;6.33;4.00;;;22.70;76.10;;;23.08;47.86;98820.19;5022127;28;114094;-81
2022/08/30 04:17:09;;;;;;;7.73;3.77;;;22.60;76.20;;;23.05;48.07;98825.78;5025783;28;124187;-83
2022/08/30 04:19:35;;;;;;;7.33;4.80;;;22.60;76.40;;;23.00;48.11;98829.81;5016471;28;123946;-79
2022/08/30 04:22:02;;;;;;;6.97;4.53;;;22.60;76.60;;;22.97;48.21;98830.59;5027822;28;115227;-78
2022/08/30 04:24:28;;;;;;;6.67;4.70;;;22.50;76.70;;;22.95;48.39;98835.78;5023457;28;115406;-79
2022/08/30 04:26:55;;;;;;;7.83;4.50;;;22.50;77.00;;;22.93;48.58;98838.19;5014034;27;124104;-78
2022/08/30 04:29:21;;;;;;;8.40;4.50;;;22.50;77.30;;;22.89;48.91;98835.38;5013182;28;123742;-76
2022/08/30 04:31:48;;;;;;;9.33;4.77;;;22.50;77.60;;;22.88;48.80;98828.09;5025239;28;114359;-79
2022/08/30 04:34:15;;;;;;;9.97;4.83;;;22.50;78.00;;;22.86;49.19;98836.16;5014332;28;114057;-76
2022/08/30 04:36:41;;;;;;;6.60;4.43;;;22.40;78.20;;;22.84;49.28;98838.56;5026643;28;125482;-76
2022/08/30 04:39:08;;;;;;;7.33;4.13;;;22.40;78.50;;;22.82;49.52;98842.97;5027028;28;123735;-81
2022/08/30 04:41:39;;;;;;;6.33;4.70;;;22.40;78.80;;;22.79;49.64;98843.75;5027027;28;114800;-76
2022/08/30 04:44:06;;;;;;;6.30;4.70;;;22.40;79.20;;;22.80;49.78;98842.53;5023967;28;113788;-78
2022/08/30 04:46:36;;;;;;;9.50;4.77;;;22.30;79.30;;;22.77;50.08;98837.72;5024750;27;124764;-76
2022/08/30 04:49:04;;;;;;;12.33;5.33;;;22.30;79.60;;;22.75;49.77;98840.91;5026314;28;123824;-76
2022/08/30 04:51:31;;;;;;;9.70;5.00;;;22.30;79.90;;;22.76;50.15;98850.19;5020859;27;114388;-79
2022/08/30 04:53:57;;;;;;;11.90;5.93;;;22.40;80.90;;;22.75;50.33;98846.53;5017367;27;114016;-77
2022/08/30 04:56:24;;;;;;;8.53;4.50;;;22.30;80.40;;;22.75;50.06;98849.34;5007258;28;124038;-79
2022/08/30 04:58:53;;;;;;;11.00;5.43;;;22.30;80.50;;;22.75;50.30;98849.34;5009385;28;123857;-76
2022/08/30 05:01:28;;;;;;;8.53;5.50;;;22.30;80.70;;;22.76;50.20;98859.44;5017609;27;114711;-78
2022/08/30 05:03:56;;;;;;;9.83;6.10;;;22.30;81.00;;;22.78;50.27;98859.84;5022043;28;114324;-77
2022/08/30 05:06:26;;;;;;;10.10;5.80;;;22.30;81.10;;;22.81;50.08;98867.53;5010204;28;124723;-77
2022/08/30 05:08:54;;;;;;;13.77;6.37;;;22.30;81.20;;;22.83;49.94;98870.72;5009264;28;125243;-76
2022/08/30 05:11:21;;;;;;;8.53;6.43;;;22.30;81.20;;;22.87;49.75;98870.78;5016073;28;115433;-77
2022/08/30 05:13:48;;;;;;;9.33;5.97;;;22.30;81.00;;;22.88;49.62;98873.19;5021438;28;114980;-77
2022/08/30 05:16:16;;;;;;;9.27;5.03;;;22.30;80.90;;;22.89;49.21;98874.81;5032689;27;124546;-77
2022/08/30 05:18:48;;;;;;;9.20;4.90;;;22.40;80.60;;;22.87;49.19;98880.03;5012186;28;124350;-76
2022/08/30 05:21:24;;;;;;;7.60;4.63;;;22.40;80.30;;;22.84;49.25;98878.00;5010644;28;114272;-78
2022/08/30 05:23:55;;;;;;;6.43;4.80;;;22.30;80.00;;;22.84;49.14;98886.44;5017597;28;114142;-76
2022/08/30 05:26:27;;;;;;;9.33;5.23;;;22.40;80.10;;;22.84;48.78;98882.84;5023811;28;123846;-77
2022/08/30 05:29:15;;;;;;;6.67;5.07;;;22.30;79.90;;;22.87;48.97;98888.47;5016594;28;124240;-77
2022/08/30 05:31:45;;;;;;;6.23;4.37;;;22.30;80.00;;;22.93;48.69;98886.09;4982526;28;114270;-77
2022/08/30 05:34:12;;;;;;;20.67;5.40;;;22.30;80.00;;;22.98;48.94;98880.13;4988783;28;114766;-79
2022/08/30 05:36:39;;;;;;;6.57;5.03;;;22.40;79.90;;;23.02;48.43;98886.56;4988742;28;126255;-76
2022/08/30 05:39:08;;;;;;;8.33;5.10;;;22.50;79.90;;;23.06;48.63;98883.78;4985874;28;124068;-79
2022/08/30 05:41:36;;;;;;;12.13;5.70;;;22.50;79.80;;;23.10;48.45;98870.50;4985577;28;114942;-79
2022/08/30 05:44:05;;;;;;;7.80;5.30;;;22.50;79.80;;;23.11;48.29;98863.69;4962014;28;114243;-79
2022/08/30 05:46:33;;;;;;;8.40;5.47;;;22.50;79.60;;;23.12;48.18;98870.94;4971274;28;123978;-77
2022/08/30 05:49:03;;;;;;;8.80;5.63;;;22.50;79.40;;;23.13;48.32;98878.16;4986164;28;123972;-78
2022/08/30 05:51:33;;;;;;;8.07;5.60;;;22.50;79.20;;;23.13;48.27;98881.00;4987141;28;114043;-79
2022/08/30 05:54:00;;;;;;;9.33;6.00;;;22.50;79.20;;;23.14;48.33;98862.88;4962864;28;113474;-78
2022/08/30 05:56:31;;;;;;;7.83;5.70;;;22.60;79.20;;;23.14;48.24;98860.06;4980111;28;123273;-77
2022/08/30 05:58:59;;;;;;;9.23;5.60;;;22.60;79.20;;;23.13;48.05;98866.91;4987984;28;123834;-78
2022/08/30 06:01:31;;;;;;;9.53;5.23;;;22.60;79.20;;;23.12;48.28;98877.38;4968437;28;115929;-78
2022/08/30 06:04:00;;;;;;;8.93;5.40;;;22.60;79.20;;;23.13;48.47;98872.53;4977614;28;115149;-79
2022/08/30 06:06:29;;;;;;;9.17;5.60;;;22.60;79.30;;;23.15;48.27;98881.41;4964114;28;125110;-77
2022/08/30 06:08:56;;;;;;;9.80;5.27;;;22.60;79.40;;;23.19;48.55;98879.44;4978060;28;123626;-78
2022/08/30 06:11:25;;;;;;;11.07;6.10;;;22.70;79.70;;;23.23;48.75;98876.63;4976438;28;114826;-78
2022/08/30 06:13:53;;;;;;;8.13;5.40;;;22.70;79.80;;;23.27;48.76;98883.91;4980909;28;113453;-77
2022/08/30 06:16:24;;;;;;;13.33;6.20;;;22.70;80.00;;;23.31;48.85;98884.69;4973063;28;123199;-77
2022/08/30 06:18:51;;;;;;;11.23;5.90;;;22.70;80.20;;;23.36;48.76;98878.69;4980136;28;123678;-77
2022/08/30 06:21:22;;;;;;;10.80;5.83;;;22.80;80.40;;;23.43;48.71;98885.53;4976546;28;113153;-78
2022/08/30 06:23:49;;;;;;;10.43;5.80;;;22.80;80.60;;;23.47;48.67;98892.81;4972669;28;113441;-79
2022/08/30 06:26:16;;;;;;;14.17;6.80;;;22.80;80.60;;;23.53;48.78;98888.41;4983313;28;124025;-78
2022/08/30 06:28:43;;;;;;;12.93;7.13;;;22.90;80.70;;;23.59;48.49;98886.84;4965916;28;122543;-80
2022/08/30 06:31:12;;;;;;;9.20;6.10;;;22.90;80.60;;;23.66;48.51;98888.06;4986076;28;114285;-80
2022/08/30 06:33:39;;;;;;;8.50;5.90;;;23.00;80.60;;;23.69;48.14;98887.25;4978209;28;114501;-78
2022/08/30 06:36:11;;;;;;;12.60;6.77;;;23.00;80.30;;;23.68;48.22;98880.81;4985705;28;124492;-77
2022/08/30 06:38:39;;;;;;;8.53;5.40;;;23.00;80.20;;;23.75;48.13;98880.88;4978760;28;123639;-78
2022/08/30 06:41:13;;;;;;;8.90;6.40;;;23.10;80.30;;;23.82;48.18;98874.44;4981677;28;113392;-78
2022/08/30 06:43:40;;;;;;;11.43;5.87;;;23.20;80.30;;;23.86;47.84;98877.25;4988619;28;112641;-79
2022/08/30 06:46:11;;;;;;;10.63;6.57;;;23.20;80.00;;;23.85;47.80;98879.25;4979920;28;124162;-82
2022/08/30 06:48:38;;;;;;;14.07;6.67;;;23.20;79.90;;;23.87;47.90;98874.03;4984800;28;123869;-81
2022/08/30 06:51:05;;;;;;;8.70;5.97;;;23.20;79.90;;;23.91;47.89;98882.50;4978794;28;115309;-82
2022/08/30 06:53:32;;;;;;;8.70;5.57;;;23.30;79.80;;;23.93;47.73;98875.25;4987636;28;115154;-81
2022/08/30 06:56:07;;;;;;;13.73;6.77;;;23.40;79.80;;;23.95;47.75;98872.84;4969521;28;124476;-82
2022/08/30 06:58:37;;;;;;;9.57;6.33;;;23.40;79.80;;;23.97;47.89;98870.44;4980796;28;125254;-81
2022/08/30 07:01:05;;;;;;;9.57;5.63;;;23.40;79.80;;;24.01;47.80;98864.78;4984572;28;114823;-81
2022/08/30 07:03:34;;;;;;;9.23;6.27;;;23.40;79.70;;;24.04;47.67;98861.16;4926013;28;1220191;-80
2022/08/30 07:06:00;;;;;;;10.20;6.37;;;23.50;79.70;;;24.08;47.67;98870.44;4993997;28;124239;-80
2022/08/30 07:08:27;;;;;;;12.50;7.70;;;23.50;79.60;;;24.15;47.64;98870.47;5017725;28;123840;-82
2022/08/30 07:10:54;;;;;;;9.63;6.07;;;23.50;79.60;;;24.22;47.31;98872.47;5021572;28;114345;-78
2022/08/30 07:13:22;;;;;;;11.67;7.17;;;23.60;79.60;;;24.28;47.11;98873.66;5018440;27;114004;-84
2022/08/30 07:15:52;;;;;;;11.73;5.73;;;23.60;79.40;;;24.30;46.96;98870.44;5018966;28;124387;-79
2022/08/30 07:21:11;;;;;;;6.67;5.30;;;23.70;79.30;;;24.47;47.23;98869.66;5018086;28;114754;-80
2022/08/30 07:23:38;;;;;;;11.50;6.70;;;23.80;79.30;;;24.59;46.86;98874.91;5011593;28;114086;-82
2022/08/30 07:26:07;;;;;;;9.03;5.90;;;23.90;79.20;;;24.67;46.40;98873.69;5024825;28;125458;-80
2022/08/30 07:28:37;;;;;;;7.20;5.27;;;23.90;79.00;;;24.73;46.48;98873.28;5028906;28;125637;-85
2022/08/30 07:31:05;;;;;;;8.90;5.20;;;24.00;78.70;;;24.75;46.31;98873.69;5024746;28;114302;-85
2022/08/30 07:33:33;;;;;;;8.80;5.93;;;24.10;78.40;;;24.76;46.14;98875.28;5026865;28;113845;-79
2022/08/30 07:35:59;;;;;;;8.73;6.10;;;24.10;78.10;;;24.78;46.19;98878.53;5023120;28;124529;-76
2022/08/30 07:38:26;;;;;;;12.40;7.03;;;24.20;78.10;;;24.78;45.82;98884.16;5029905;28;121995;-77
2022/08/30 07:40:53;;;;;;;9.37;6.13;;;24.20;77.70;;;24.79;45.76;98882.94;5020405;28;115033;-79
2022/08/30 07:43:20;;;;;;;16.70;6.70;;;24.20;77.50;;;24.84;45.70;98876.88;5026457;28;115006;-80
2022/08/30 07:45:46;;;;;;;8.73;5.70;;;24.30;78.20;;;24.93;45.72;98882.91;5013051;28;124181;-80
2022/08/30 07:48:13;;;;;;;8.87;6.00;;;24.30;77.50;;;25.01;45.54;98876.06;5009340;28;123902;-81
2022/08/30 07:50:44;;;;;;;6.80;5.13;;;24.40;77.50;;;25.08;45.67;98878.03;5013136;28;113640;-80
2022/08/30 07:53:11;;;;;;;8.37;5.60;;;24.40;77.40;;;25.14;45.49;98877.19;5028291;27;114035;-79
2022/08/30 07:55:38;;;;;;;9.43;6.03;;;24.50;77.30;;;25.20;45.44;98873.97;5007948;28;124297;-80
2022/08/30 07:58:05;;;;;;;8.83;5.07;;;24.50;77.10;;;25.27;45.18;98871.94;5022110;28;123013;-81
2022/08/30 08:00:31;;;;;;;10.27;6.00;;;24.60;77.10;;;25.34;44.90;98876.78;5012574;28;114321;-78
2022/08/30 08:03:06;;;;;;;6.57;4.80;;;24.60;77.00;;;25.39;45.17;98876.34;5024834;27;114045;-81
2022/08/30 08:05:38;;;;;;;5.67;4.90;;;24.70;76.80;;;25.46;44.88;98870.63;5022779;27;124197;-79
2022/08/30 08:08:04;;;;;;;8.80;5.40;;;24.80;76.60;;;25.52;44.80;98871.84;5034535;27;123472;-81
2022/08/30 08:10:31;;;;;;;7.53;5.40;;;24.90;76.40;;;25.56;44.59;98871.81;5011352;28;113973;-78
2022/08/30 08:12:59;;;;;;;8.73;5.20;;;24.90;76.10;;;25.60;44.34;98880.28;5009923;28;114086;-80
2022/08/30 08:15:27;;;;;;;9.23;6.50;;;24.90;75.80;;;25.65;44.68;98868.53;5011121;28;124529;-80
2022/08/30 08:17:54;;;;;;;10.97;6.53;;;25.00;75.70;;;25.73;43.84;98864.44;5010452;28;123480;-78
2022/08/30 08:20:20;;;;;;;12.93;5.53;;;25.00;75.50;;;25.82;44.26;98876.13;5022606;28;114050;-80
2022/08/30 08:22:47;;;;;;;6.70;5.03;;;25.10;75.40;;;25.89;43.75;98869.63;5020547;28;114140;-79
2022/08/30 08:25:15;;;;;;;7.23;5.17;;;25.10;75.10;;;25.97;43.89;98866.34;5013226;27;123731;-78
2022/08/30 08:27:42;;;;;;;9.90;5.47;;;25.30;75.00;;;26.06;43.25;98882.06;5022387;27;126061;-82
2022/08/30 08:30:09;;;;;;;7.40;5.30;;;25.30;74.70;;;26.12;43.39;98874.75;5016746;27;115411;-81
2022/08/30 08:32:36;;;;;;;6.83;4.50;;;25.40;74.40;;;26.21;43.04;98883.56;5023628;27;114433;-79
2022/08/30 08:35:03;;;;;;;10.10;5.10;;;25.50;74.30;;;26.29;43.22;98868.13;5022464;28;123314;-79
2022/08/30 08:37:32;;;;;;;6.17;5.30;;;25.60;74.00;;;26.39;43.22;98872.09;5023554;28;124952;-81
2022/08/30 08:39:58;;;;;;;9.73;6.33;;;25.60;73.70;;;26.44;42.53;98868.81;5011511;28;113605;-79
2022/08/30 08:42:59;;;;;;;6.00;4.97;;;25.70;73.50;;;26.47;42.71;98872.84;5019621;28;113981;-81
2022/08/30 08:45:39;;;;;;;8.97;5.20;;;24.70;72.60;;;26.53;42.68;98865.53;5023959;28;124550;-81
2022/08/30 08:48:32;;;;;;;7.27;5.90;;;25.80;73.40;;;26.56;43.07;98859.03;5012789;28;123742;-81
2022/08/30 08:53:54;;;;;;;15.40;6.37;;;25.90;73.10;;;26.60;42.65;98868.31;5015593;28;114315;-83
2022/08/30 08:56:21;;;;;;;12.30;6.43;;;25.90;72.90;;;26.60;42.37;98856.97;5016287;28;123409;-81
2022/08/30 08:58:55;;;;;;;8.50;5.47;;;26.00;72.80;;;26.61;42.84;98861.41;5011308;28;122860;-81
2022/08/30 09:01:26;;;;;;;7.97;6.00;;;25.90;72.80;;;26.66;42.52;98852.44;5005007;28;114044;-81
2022/08/30 09:03:55;;;;;;;9.50;5.87;;;26.00;72.90;;;26.68;42.53;98850.00;5020337;28;113985;-80
2022/08/30 09:06:55;;;;;;;9.03;4.50;;;26.00;72.60;;;26.72;42.44;98852.81;5002266;28;122835;-79
2022/08/30 09:09:36;;;;;;;10.03;4.80;;;26.10;72.00;;;26.74;42.11;98848.31;5013343;28;123732;-82
2022/08/30 09:12:06;;;;;;;6.40;4.63;;;26.10;71.60;;;26.76;41.98;98854.38;5015880;28;114879;-82
2022/08/30 09:14:37;;;;;;;6.73;5.43;;;26.10;71.70;;;26.84;42.28;98847.41;5019401;28;113374;-80
2022/08/30 09:17:09;;;;;;;6.87;5.43;;;26.20;71.60;;;26.89;41.96;98843.28;5010172;28;124596;-80
2022/08/30 09:19:42;;;;;;;9.07;5.07;;;26.30;71.20;;;26.93;41.66;98843.28;5013433;28;123669;-81
2022/08/30 09:22:21;;;;;;;6.50;4.47;;;26.30;71.00;;;26.96;41.67;98836.75;5019864;27;114774;-83
2022/08/30 09:25:07;;;;;;;5.83;4.17;;;26.30;71.00;;;27.01;41.75;98836.28;5012017;28;115066;-80
2022/08/30 09:27:44;;;;;;;7.00;4.90;;;26.40;71.00;;;27.06;41.75;98836.63;4992561;28;122999;-79
2022/08/30 09:30:14;;;;;;;5.90;4.57;;;26.50;70.70;;;27.12;41.28;98827.66;5007689;28;122797;-79
2022/08/30 09:32:52;;;;;;;6.43;4.67;;;26.50;70.40;;;27.16;41.57;98822.72;5023866;28;114278;-82
2022/08/30 09:35:35;;;;;;;6.27;5.10;;;26.60;70.10;;;27.21;40.82;98823.09;5013892;28;113974;-79
2022/08/30 09:38:15;;;;;;;7.70;4.63;;;26.60;69.60;;;27.27;41.06;98817.75;5015094;28;123270;-81
2022/08/30 09:40:51;;;;;;;11.70;4.47;;;26.60;69.40;;;27.31;41.03;98816.47;5017280;28;123695;-79
2022/08/30 09:43:33;;;;;;;5.73;4.53;;;26.70;69.20;;;27.37;40.86;98816.00;5015260;28;114347;-79
2022/08/30 09:45:59;;;;;;;5.73;4.13;;;26.80;69.10;;;27.42;40.88;98810.66;5038057;27;114423;-79
2022/08/30 09:48:25;;;;;;;4.73;4.10;;;26.80;69.00;;;27.48;41.00;98810.97;5014992;28;124525;-82
2022/08/30 09:51:09;;;;;;;6.17;4.80;;;26.90;69.00;;;27.54;40.82;98807.25;5013732;28;123288;-80
2022/08/30 09:54:33;;;;;;;6.40;5.00;;;26.90;68.70;;;27.56;40.80;98801.13;5017824;28;114942;-79
2022/08/30 09:57:03;;;;;;;5.67;4.53;;;27.00;68.60;;;27.63;40.18;98803.88;5021342;27;115220;-79
2022/08/30 09:59:45;;;;;;;6.40;4.90;;;27.00;67.90;;;27.67;40.13;98796.13;5017226;28;125557;-77
2022/08/30 10:02:25;;;;;;;7.50;5.50;;;27.10;67.60;;;27.71;39.89;98796.06;5017871;27;123629;-80
2022/08/30 10:05:15;;;;;;;7.13;4.70;;;27.10;67.40;;;27.74;40.10;98792.38;5025914;28;114310;-82
2022/08/30 10:08:14;;;;;;;5.97;4.90;;;27.20;67.50;;;27.79;40.10;98794.72;5018934;28;113363;-78
2022/08/30 10:10:51;;;;;;;9.50;5.10;;;27.30;67.50;;;27.84;40.03;98794.28;5015461;28;124425;-77
2022/08/30 10:14:04;;;;;;;5.80;5.20;;;27.30;67.20;;;27.89;39.96;98788.09;5039476;27;123824;-81
2022/08/30 10:16:58;;;;;;;5.10;4.43;;;27.40;67.00;;;27.92;39.69;98784.41;5011733;28;115192;-79
2022/08/30 10:19:46;;;;;;;8.07;5.37;;;27.40;66.60;;;27.98;39.79;98776.19;5009270;28;115560;-78
2022/08/30 10:22:30;;;;;;;6.27;5.37;;;27.40;66.90;;;28.04;39.72;98774.47;5009140;28;124506;-81
2022/08/30 10:25:16;;;;;;;6.67;4.50;;;27.50;66.20;;;28.10;39.58;98772.75;5020001;27;123991;-80
2022/08/30 10:28:00;;;;;;;5.27;4.30;;;27.60;66.10;;;28.18;39.36;98765.72;5011886;28;114459;-79
2022/08/30 10:30:30;;;;;;;7.13;4.40;;;27.60;66.10;;;28.28;39.02;98754.56;5011189;28;114511;-81
2022/08/30 10:33:09;;;;;;;5.50;4.90;;;27.70;65.60;;;28.37;38.63;98763.34;5019095;27;124245;-79